Time;durP1;ratioP1;P1;durP2;ratioP2;P2;SDS_P1;SDS_P2;PMS_P1;PMS_P2;Temp;Humidity;BMP_temperature;BMP_pressure;BME280_temperature;BME280_humidity;BME280_pressure;Samples;Min_cycle;Max_cycle;Signal;HPM_P1;HPM_P2
2021/03/08 00:00:51;;;;;;;21.25;12.95;;;4.50;71.00;;;;;;2072167;28;20036;-82
2021/03/08 00:01:52;;;;;;;20.73;12.82;;;4.50;71.00;;;;;;2071258;28;20026;-82
2021/03/08 00:02:54;;;;;;;21.17;13.57;;;4.50;71.10;;;;;;2079053;28;20022;-82
2021/03/08 00:03:54;;;;;;;21.38;13.25;;;4.50;71.10;;;;;;2082316;28;20145;-83
2021/03/08 00:04:55;;;;;;;22.83;13.60;;;4.50;71.10;;;;;;2063815;28;20030;-82
2021/03/08 00:05:56;;;;;;;21.30;12.70;;;4.50;71.10;;;;;;2053398;28;20470;-82
2021/03/08 00:06:56;;;;;;;20.63;12.95;;;4.50;71.20;;;;;;2064903;28;20473;-82
2021/03/08 00:07:57;;;;;;;20.77;12.85;;;4.50;71.20;;;;;;2073563;28;20507;-82
2021/03/08 00:08:58;;;;;;;22.88;13.27;;;4.50;71.30;;;;;;2071820;28;20064;-82
2021/03/08 00:09:59;;;;;;;21.25;13.18;;;4.50;71.30;;;;;;2056219;28;20463;-82
2021/03/08 00:10:59;;;;;;;21.02;12.85;;;4.50;71.30;;;;;;2055832;28;20073;-82
2021/03/08 00:12:00;;;;;;;21.27;13.10;;;4.50;71.30;;;;;;2069029;28;20092;-82
2021/03/08 00:13:00;;;;;;;20.50;12.88;;;4.50;71.40;;;;;;2072508;28;20030;-81
2021/03/08 00:14:01;;;;;;;21.48;13.93;;;4.50;72.00;;;;;;2072756;28;20034;-82
2021/03/08 00:15:03;;;;;;;21.30;13.25;;;4.50;71.50;;;;;;2055507;28;20037;-81
2021/03/08 00:16:03;;;;;;;20.38;13.02;;;4.50;71.50;;;;;;2056824;28;20031;-82
2021/03/08 00:17:05;;;;;;;22.40;12.85;;;4.50;71.50;;;;;;2064488;28;20026;-81
2021/03/08 00:18:06;;;;;;;20.20;12.65;;;4.50;71.60;;;;;;2053758;28;20034;-82
2021/03/08 00:19:06;;;;;;;19.88;12.82;;;4.50;71.60;;;;;;2055946;28;20034;-82
2021/03/08 00:20:10;;;;;;;21.23;12.85;;;4.50;71.60;;;;;;2063813;28;20062;-82
2021/03/08 00:21:10;;;;;;;21.02;13.25;;;4.40;71.60;;;;;;2066480;28;20069;-82
2021/03/08 00:22:11;;;;;;;22.15;12.88;;;4.50;71.60;;;;;;2071753;28;20038;-83
2021/03/08 00:23:12;;;;;;;24.17;14.38;;;4.40;71.60;;;;;;2071354;28;20022;-82
2021/03/08 00:24:13;;;;;;;22.08;13.38;;;4.50;71.70;;;;;;2051998;28;20053;-81
2021/03/08 00:25:20;;;;;;;19.48;13.23;;;4.40;71.70;;;;;;2065045;28;20462;-80
2021/03/08 00:26:21;;;;;;;22.95;13.27;;;4.40;71.70;;;;;;2076362;28;20037;-80
2021/03/08 00:27:22;;;;;;;20.73;13.02;;;4.40;71.70;;;;;;2077625;28;20034;-80
2021/03/08 00:28:23;;;;;;;20.88;13.07;;;4.40;71.80;;;;;;2080639;28;20033;-80
2021/03/08 00:29:25;;;;;;;20.63;13.02;;;4.50;71.80;;;;;;2079083;28;20061;-80
2021/03/08 00:30:26;;;;;;;20.00;12.75;;;4.40;71.80;;;;;;2079716;28;20105;-80
2021/03/08 00:31:26;;;;;;;22.40;13.80;;;4.50;71.90;;;;;;2079781;28;20036;-80
2021/03/08 00:32:27;;;;;;;20.08;13.10;;;4.40;71.80;;;;;;2068872;28;20038;-80
2021/03/08 00:33:28;;;;;;;21.80;13.40;;;4.40;71.80;;;;;;2062761;28;20065;-80
2021/03/08 00:34:28;;;;;;;20.08;13.50;;;4.40;71.80;;;;;;2061305;28;20114;-80
2021/03/08 00:35:29;;;;;;;20.83;12.77;;;4.40;71.80;;;;;;2061756;28;20038;-80
2021/03/08 00:36:30;;;;;;;20.83;12.73;;;4.40;71.90;;;;;;2069457;28;20503;-80
2021/03/08 00:37:31;;;;;;;20.40;13.63;;;4.40;71.90;;;;;;2078858;28;20116;-80
2021/03/08 00:38:31;;;;;;;19.35;12.38;;;4.40;71.90;;;;;;2080080;28;20018;-80
2021/03/08 00:39:33;;;;;;;22.10;13.57;;;4.50;72.00;;;;;;2071661;28;20503;-80
2021/03/08 00:40:33;;;;;;;20.70;13.07;;;4.40;71.90;;;;;;2079456;28;20026;-80
2021/03/08 00:41:34;;;;;;;21.17;13.27;;;4.40;71.90;;;;;;2072715;28;20026;-80
2021/03/08 00:42:35;;;;;;;22.35;13.10;;;4.40;72.00;;;;;;2072633;28;20120;-80
2021/03/08 00:43:36;;;;;;;19.95;13.10;;;4.40;72.10;;;;;;2063334;28;20042;-80
2021/03/08 00:44:36;;;;;;;19.08;12.07;;;4.40;72.10;;;;;;2071979;28;20452;-80
2021/03/08 00:45:37;;;;;;;21.20;13.15;;;4.40;72.10;;;;;;2079803;28;20033;-81
2021/03/08 00:46:37;;;;;;;18.52;12.07;;;4.40;72.10;;;;;;2078424;28;20415;-80
2021/03/08 00:47:38;;;;;;;19.92;12.77;;;4.40;72.30;;;;;;2078208;28;20028;-80
2021/03/08 00:48:39;;;;;;;19.63;12.68;;;4.40;72.20;;;;;;2072734;28;20029;-81
2021/03/08 00:49:40;;;;;;;20.85;13.50;;;4.40;72.20;;;;;;2081069;28;20044;-81
2021/03/08 00:50:40;;;;;;;19.58;12.52;;;4.40;72.20;;;;;;2077884;28;20025;-81
2021/03/08 00:51:41;;;;;;;18.02;12.07;;;4.40;72.20;;;;;;2057440;28;20075;-81
2021/03/08 00:52:42;;;;;;;21.73;13.90;;;4.40;72.20;;;;;;2054109;28;20019;-81
2021/03/08 00:53:43;;;;;;;20.13;12.85;;;4.40;72.30;;;;;;2064534;28;20437;-81
2021/03/08 00:54:43;;;;;;;18.92;12.32;;;4.40;72.30;;;;;;2058268;28;20113;-81
2021/03/08 00:55:44;;;;;;;20.90;13.35;;;4.40;72.30;;;;;;2064216;28;20085;-81
2021/03/08 00:56:45;;;;;;;23.20;14.52;;;4.40;72.30;;;;;;2069454;28;20033;-81
2021/03/08 00:57:46;;;;;;;21.15;12.90;;;4.40;72.30;;;;;;2070157;28;20106;-81
2021/03/08 00:58:47;;;;;;;20.17;13.02;;;4.40;72.30;;;;;;2078172;28;20021;-81
2021/03/08 00:59:47;;;;;;;20.83;13.23;;;4.40;72.30;;;;;;2072415;28;20121;-80
2021/03/08 01:00:48;;;;;;;20.15;12.60;;;4.40;72.40;;;;;;2068433;28;20027;-81
2021/03/08 01:01:49;;;;;;;20.23;12.85;;;4.40;73.10;;;;;;2066756;28;20104;-80
2021/03/08 01:02:51;;;;;;;20.42;13.15;;;4.40;72.50;;;;;;2068758;28;20547;-81
2021/03/08 01:03:52;;;;;;;21.40;13.48;;;4.40;72.50;;;;;;2064619;28;20034;-80
2021/03/08 01:04:53;;;;;;;20.02;12.73;;;4.40;72.50;;;;;;2062102;28;20101;-80
2021/03/08 01:05:53;;;;;;;19.67;12.80;;;4.40;73.10;;;;;;2071767;28;20567;-81
2021/03/08 01:06:54;;;;;;;19.02;12.48;;;4.40;72.50;;;;;;2072641;28;20038;-81
2021/03/08 01:07:54;;;;;;;24.25;13.25;;;4.40;72.50;;;;;;2071325;28;20034;-80
2021/03/08 01:08:55;;;;;;;21.70;12.82;;;4.40;72.50;;;;;;2080926;28;20036;-81
2021/03/08 01:09:56;;;;;;;20.52;12.88;;;4.40;72.60;;;;;;2074848;28;20109;-81
2021/03/08 01:10:57;;;;;;;19.17;12.70;;;4.40;72.60;;;;;;2082409;28;20025;-81
2021/03/08 01:11:58;;;;;;;19.88;13.07;;;4.40;72.60;;;;;;2076007;28;20114;-80
2021/03/08 01:12:59;;;;;;;20.52;12.68;;;4.40;72.70;;;;;;2073614;28;20493;-81
2021/03/08 01:14:00;;;;;;;19.50;12.60;;;4.40;72.70;;;;;;2074396;28;20080;-81
2021/03/08 01:15:00;;;;;;;19.25;11.98;;;4.40;72.70;;;;;;2068740;28;20027;-81
2021/03/08 01:16:01;;;;;;;21.30;13.05;;;4.40;73.00;;;;;;2059196;28;20096;-80
2021/03/08 01:17:02;;;;;;;19.60;12.30;;;4.40;72.70;;;;;;2072569;28;20515;-80
2021/03/08 01:18:03;;;;;;;22.35;13.52;;;4.40;72.80;;;;;;2077301;28;20125;-81
2021/03/08 01:19:04;;;;;;;20.20;13.38;;;4.40;72.80;;;;;;2081003;28;20053;-80
2021/03/08 01:20:08;;;;;;;20.58;13.40;;;4.40;72.80;;;;;;2071434;28;20029;-81
2021/03/08 01:21:09;;;;;;;20.52;13.27;;;4.40;72.80;;;;;;2071627;28;20037;-81
2021/03/08 01:22:10;;;;;;;21.67;13.25;;;4.40;72.80;;;;;;2062585;28;20034;-81
2021/03/08 01:23:12;;;;;;;22.25;13.10;;;4.40;72.90;;;;;;2055856;28;20118;-81
2021/03/08 01:24:13;;;;;;;19.77;12.65;;;4.40;72.90;;;;;;2065221;28;20038;-81
2021/03/08 01:25:21;;;;;;;20.55;13.52;;;4.40;72.90;;;;;;2070545;28;20030;-81
2021/03/08 01:26:22;;;;;;;19.88;12.93;;;4.40;73.00;;;;;;2066516;28;20014;-81
2021/03/08 01:27:22;;;;;;;19.30;12.65;;;4.30;72.90;;;;;;2078184;28;20060;-81
2021/03/08 01:28:23;;;;;;;18.98;12.52;;;4.40;73.00;;;;;;2060119;28;20054;-81
2021/03/08 01:29:24;;;;;;;19.73;12.00;;;4.30;72.90;;;;;;2056022;28;20025;-81
2021/03/08 01:30:32;;;;;;;20.10;12.98;;;4.40;73.00;;;;;;2055578;28;20038;-81
2021/03/08 01:31:33;;;;;;;18.92;12.30;;;4.40;73.10;;;;;;2071841;28;20050;-81
2021/03/08 01:32:34;;;;;;;18.77;12.02;;;4.40;73.10;;;;;;2067235;28;20026;-81
2021/03/08 01:33:35;;;;;;;21.10;12.52;;;4.40;73.10;;;;;;2060536;28;20073;-81
2021/03/08 01:34:35;;;;;;;18.02;11.55;;;4.40;73.10;;;;;;2052011;28;20042;-81
2021/03/08 01:35:38;;;;;;;21.63;12.75;;;4.40;73.10;;;;;;2048458;28;20030;-81
2021/03/08 01:36:38;;;;;;;20.30;12.05;;;4.40;73.20;;;;;;2061400;28;20030;-81
2021/03/08 01:37:39;;;;;;;20.67;12.98;;;4.40;73.20;;;;;;2064233;28;20437;-81
2021/03/08 01:38:40;;;;;;;20.30;12.27;;;4.40;73.20;;;;;;2072616;28;20032;-81
2021/03/08 01:39:40;;;;;;;19.95;13.02;;;4.40;73.20;;;;;;2056196;28;20035;-81
2021/03/08 01:40:41;;;;;;;20.27;12.80;;;4.40;73.20;;;;;;2055276;28;20104;-80
2021/03/08 01:41:42;;;;;;;20.17;12.98;;;4.40;73.20;;;;;;2063206;28;20018;-80
2021/03/08 01:42:43;;;;;;;23.40;13.23;;;4.40;73.20;;;;;;2072281;28;20081;-81
2021/03/08 01:43:44;;;;;;;21.25;13.13;;;4.40;73.20;;;;;;2069012;28;20126;-81
2021/03/08 01:44:44;;;;;;;21.65;12.70;;;4.40;73.20;;;;;;2055025;28;20031;-81
2021/03/08 01:45:45;;;;;;;21.33;12.80;;;4.40;73.20;;;;;;2064059;28;20073;-81
2021/03/08 01:46:47;;;;;;;20.55;13.20;;;4.40;73.20;;;;;;2059095;28;20023;-81
2021/03/08 01:47:49;;;;;;;21.15;12.93;;;4.40;73.20;;;;;;2055552;28;20118;-81
2021/03/08 01:48:50;;;;;;;20.42;12.57;;;4.40;73.30;;;;;;2072156;28;20496;-81
2021/03/08 01:49:51;;;;;;;19.88;11.77;;;4.40;73.30;;;;;;2060936;28;20034;-81
2021/03/08 01:50:52;;;;;;;19.80;12.50;;;4.40;73.30;;;;;;2064291;28;20061;-81
2021/03/08 01:51:52;;;;;;;20.27;12.13;;;4.40;73.30;;;;;;2069401;28;20034;-81
2021/03/08 01:52:53;;;;;;;20.67;12.90;;;4.40;73.30;;;;;;2065028;28;20029;-81
2021/03/08 01:53:54;;;;;;;18.90;11.73;;;4.40;73.40;;;;;;2070204;28;20030;-81
2021/03/08 01:54:55;;;;;;;20.23;12.13;;;4.40;73.40;;;;;;2047689;28;20210;-81
2021/03/08 01:55:56;;;;;;;19.42;12.27;;;4.40;73.40;;;;;;2048165;28;20039;-81
2021/03/08 01:56:57;;;;;;;19.50;12.45;;;4.40;73.40;;;;;;2064499;28;20080;-81
2021/03/08 01:57:58;;;;;;;20.02;12.70;;;4.40;73.40;;;;;;2071957;28;20034;-81
2021/03/08 01:58:59;;;;;;;19.65;12.80;;;4.40;73.50;;;;;;2062627;28;20023;-81
2021/03/08 02:00:00;;;;;;;21.23;12.57;;;4.40;73.50;;;;;;2062937;28;20073;-81
2021/03/08 02:01:01;;;;;;;18.98;12.32;;;4.40;73.50;;;;;;2062309;28;20038;-81
2021/03/08 02:02:03;;;;;;;18.63;12.32;;;4.40;73.50;;;;;;2069529;28;20052;-81
2021/03/08 02:03:04;;;;;;;21.27;13.18;;;4.40;73.50;;;;;;2061903;28;20125;-81
2021/03/08 02:04:05;;;;;;;21.88;13.05;;;4.40;73.50;;;;;;2061755;28;20121;-81
2021/03/08 02:05:08;;;;;;;19.30;11.98;;;4.40;73.60;;;;;;2069064;28;20026;-80
2021/03/08 02:06:09;;;;;;;19.17;12.15;;;4.40;73.60;;;;;;2071686;28;20043;-81
2021/03/08 02:07:09;;;;;;;20.83;12.32;;;4.40;73.70;;;;;;2074605;28;20065;-81
2021/03/08 02:08:13;;;;;;;18.92;12.73;;;4.40;73.70;;;;;;2071190;28;20037;-81
2021/03/08 02:09:14;;;;;;;18.67;12.20;;;4.40;73.70;;;;;;2073518;28;20030;-80
2021/03/08 02:10:16;;;;;;;19.80;11.68;;;4.40;73.80;;;;;;2074438;28;20037;-80
2021/03/08 02:11:17;;;;;;;20.25;12.32;;;4.40;73.80;;;;;;2073389;28;20051;-80
2021/03/08 02:12:39;;;;;;;19.60;11.93;;;4.40;73.80;;;;;;2063367;28;20034;-80
2021/03/08 02:13:58;;;;;;;21.40;12.98;;;4.40;73.90;;;;;;2056810;28;20027;-81
2021/03/08 02:15:34;;;;;;;18.67;11.68;;;4.40;73.90;;;;;;2064451;28;20591;-80
2021/03/08 02:16:49;;;;;;;18.38;11.23;;;4.40;73.90;;;;;;2072263;28;20029;-81
2021/03/08 02:18:21;;;;;;;19.20;11.90;;;4.40;73.80;;;;;;2065994;28;20579;-80
2021/03/08 02:19:51;;;;;;;18.45;11.35;;;4.30;73.80;;;;;;2063502;28;20031;-81
2021/03/08 02:20:55;;;;;;;18.73;11.27;;;4.30;73.80;;;;;;2045715;28;20133;-80
2021/03/08 02:22:32;;;;;;;19.67;11.90;;;4.30;73.80;;;;;;2065336;28;20026;-80
2021/03/08 02:23:50;;;;;;;15.93;10.65;;;4.30;73.90;;;;;;2072941;28;20538;-80
2021/03/08 02:25:02;;;;;;;17.90;10.93;;;4.30;73.90;;;;;;2068067;28;20436;-80
2021/03/08 02:26:21;;;;;;;18.63;11.40;;;4.30;73.90;;;;;;2066991;28;20026;-80
2021/03/08 02:27:52;;;;;;;20.02;11.95;;;4.30;74.00;;;;;;2074027;28;20075;-81
2021/03/08 02:29:26;;;;;;;17.38;11.05;;;4.30;74.00;;;;;;2081785;28;20056;-80
2021/03/08 02:30:50;;;;;;;18.25;10.82;;;4.30;74.00;;;;;;2080817;28;20037;-81
2021/03/08 02:31:53;;;;;;;18.40;10.90;;;4.30;73.90;;;;;;2052699;28;20034;-80
2021/03/08 02:32:55;;;;;;;17.88;10.60;;;4.30;74.00;;;;;;2069457;28;20563;-80
2021/03/08 02:34:01;;;;;;;18.77;11.25;;;4.30;74.00;;;;;;2057883;28;20031;-81
2021/03/08 02:35:24;;;;;;;17.88;11.07;;;4.30;74.10;;;;;;2065800;28;20046;-81
2021/03/08 02:36:28;;;;;;;20.48;11.65;;;4.30;74.20;;;;;;2065600;28;20050;-80
2021/03/08 02:37:33;;;;;;;18.83;11.27;;;4.30;74.20;;;;;;2074668;28;20018;-82
2021/03/08 02:38:38;;;;;;;19.02;11.88;;;4.30;74.20;;;;;;2075141;28;20022;-81
2021/03/08 02:39:44;;;;;;;19.48;11.93;;;4.30;74.30;;;;;;2075790;28;20033;-81
2021/03/08 02:40:50;;;;;;;20.17;12.23;;;4.30;74.30;;;;;;2074699;28;20037;-81
2021/03/08 02:41:54;;;;;;;19.05;12.07;;;4.30;74.40;;;;;;2066865;28;20022;-80
2021/03/08 02:42:57;;;;;;;18.48;11.68;;;4.30;74.40;;;;;;2070006;28;20105;-81
2021/03/08 02:44:04;;;;;;;19.25;11.80;;;4.30;74.40;;;;;;2072614;28;20029;-81
2021/03/08 02:45:08;;;;;;;19.58;11.40;;;4.30;74.40;;;;;;2073324;28;20026;-81
2021/03/08 02:46:25;;;;;;;18.55;12.13;;;4.30;74.50;;;;;;2065136;28;20521;-80
2021/03/08 02:47:30;;;;;;;18.55;11.88;;;4.30;74.50;;;;;;2067758;28;20023;-81
2021/03/08 02:48:32;;;;;;;18.88;11.90;;;4.30;74.50;;;;;;2062577;28;20445;-81
2021/03/08 02:49:35;;;;;;;19.92;12.40;;;4.30;74.50;;;;;;2065612;28;20034;-81
2021/03/08 02:50:36;;;;;;;19.27;12.07;;;4.30;74.60;;;;;;2073568;28;20088;-81
2021/03/08 02:51:42;;;;;;;20.95;12.25;;;4.30;74.60;;;;;;2071920;28;20412;-81
2021/03/08 02:53:00;;;;;;;20.98;12.93;;;4.30;74.70;;;;;;2073009;28;20050;-81
2021/03/08 02:54:02;;;;;;;20.92;12.32;;;4.30;74.70;;;;;;2070324;28;20470;-81
2021/03/08 02:55:06;;;;;;;20.45;12.93;;;4.30;74.70;;;;;;2065058;28;20406;-81
2021/03/08 02:56:16;;;;;;;19.98;12.18;;;4.30;74.70;;;;;;2066498;28;20048;-81
2021/03/08 02:57:20;;;;;;;21.00;12.27;;;4.30;74.70;;;;;;2077927;28;20111;-81
2021/03/08 02:58:24;;;;;;;19.75;11.77;;;4.30;74.70;;;;;;2065636;28;20285;-81
2021/03/08 02:59:26;;;;;;;20.63;12.57;;;4.30;74.70;;;;;;2057452;28;20050;-81
2021/03/08 03:00:30;;;;;;;19.42;12.40;;;4.30;74.80;;;;;;2070906;28;20045;-81
2021/03/08 03:01:33;;;;;;;20.42;12.32;;;4.30;74.80;;;;;;2072387;28;20018;-81
2021/03/08 03:02:34;;;;;;;21.38;12.73;;;4.30;74.90;;;;;;2072478;28;20018;-81
2021/03/08 03:03:39;;;;;;;19.00;12.32;;;4.30;74.90;;;;;;2075184;28;20117;-81
2021/03/08 03:04:43;;;;;;;19.75;12.32;;;4.30;75.00;;;;;;2072309;28;20014;-81
2021/03/08 03:05:44;;;;;;;20.00;12.07;;;4.30;75.00;;;;;;2065269;28;20150;-81
2021/03/08 03:06:47;;;;;;;20.92;13.07;;;4.30;75.00;;;;;;2056105;28;20030;-81
2021/03/08 03:07:51;;;;;;;19.88;12.50;;;4.30;75.00;;;;;;2071002;28;20112;-81
2021/03/08 03:08:53;;;;;;;21.67;13.13;;;4.30;75.10;;;;;;2058707;28;20145;-81
2021/03/08 03:09:53;;;;;;;18.83;11.77;;;4.30;75.10;;;;;;2073381;28;20026;-80
2021/03/08 03:10:55;;;;;;;20.45;12.55;;;4.30;75.20;;;;;;2058556;28;20039;-80
2021/03/08 03:11:57;;;;;;;19.75;12.32;;;4.30;75.20;;;;;;2057243;28;20121;-81
2021/03/08 03:13:00;;;;;;;20.20;12.48;;;4.30;75.30;;;;;;2070312;28;20030;-81
2021/03/08 03:14:03;;;;;;;20.55;13.18;;;4.30;75.30;;;;;;2073956;28;20029;-81
2021/03/08 03:15:07;;;;;;;21.35;13.27;;;4.30;75.40;;;;;;2072970;28;20029;-80
2021/03/08 03:16:09;;;;;;;20.00;13.13;;;4.30;75.40;;;;;;2072116;28;20080;-80
2021/03/08 03:17:12;;;;;;;20.42;12.75;;;4.30;75.40;;;;;;2066029;28;20033;-80
2021/03/08 03:18:14;;;;;;;20.95;13.35;;;4.30;75.40;;;;;;2065679;28;20061;-80
2021/03/08 03:19:18;;;;;;;23.15;13.40;;;4.30;75.40;;;;;;2073705;28;20026;-80
2021/03/08 03:20:19;;;;;;;20.63;12.55;;;4.30;75.40;;;;;;2073989;28;20041;-80
2021/03/08 03:21:24;;;;;;;21.80;13.48;;;4.30;75.40;;;;;;2069995;28;20555;-80
2021/03/08 03:22:27;;;;;;;21.08;12.95;;;4.30;75.50;;;;;;2065463;28;20092;-80
2021/03/08 03:23:29;;;;;;;21.80;13.10;;;4.30;75.50;;;;;;2063789;28;20049;-80
2021/03/08 03:24:31;;;;;;;22.70;13.63;;;4.30;75.50;;;;;;2063790;28;20062;-80
2021/03/08 03:25:33;;;;;;;20.95;13.30;;;4.30;75.50;;;;;;2073856;28;20034;-80
2021/03/08 03:26:34;;;;;;;22.92;13.77;;;4.30;75.50;;;;;;2074442;28;20028;-80
2021/03/08 03:27:35;;;;;;;21.30;12.90;;;4.30;75.60;;;;;;2079295;28;20075;-80
2021/03/08 03:28:36;;;;;;;21.33;13.38;;;4.30;75.60;;;;;;2080839;28;20450;-80
2021/03/08 03:29:38;;;;;;;20.55;13.27;;;4.30;75.60;;;;;;2067182;28;20064;-80
2021/03/08 03:30:39;;;;;;;21.95;13.88;;;4.30;75.70;;;;;;2063011;28;20053;-80
2021/03/08 03:31:41;;;;;;;23.90;14.52;;;4.20;75.70;;;;;;2072962;28;20100;-80
2021/03/08 03:32:42;;;;;;;24.38;14.23;;;4.30;75.80;;;;;;2081874;28;20448;-80
2021/03/08 03:33:45;;;;;;;21.50;13.63;;;4.30;75.80;;;;;;2072641;28;20041;-80
2021/03/08 03:34:47;;;;;;;22.80;13.75;;;4.20;75.80;;;;;;2072638;28;20030;-80
2021/03/08 03:35:48;;;;;;;23.60;14.07;;;4.30;75.80;;;;;;2082120;28;20128;-80
2021/03/08 03:36:51;;;;;;;21.63;13.60;;;4.30;75.80;;;;;;2062959;28;20113;-80
2021/03/08 03:37:54;;;;;;;22.10;14.25;;;4.30;75.80;;;;;;2062554;28;20034;-81
2021/03/08 03:38:56;;;;;;;22.02;13.88;;;4.30;75.80;;;;;;2064869;28;20018;-81
2021/03/08 03:39:56;;;;;;;22.42;14.10;;;4.30;75.80;;;;;;2072686;28;20133;-81
2021/03/08 03:40:57;;;;;;;24.73;14.38;;;4.30;75.80;;;;;;2071835;28;20535;-81
2021/03/08 03:41:58;;;;;;;22.85;14.55;;;4.30;75.80;;;;;;2061925;28;20583;-81
2021/03/08 03:42:59;;;;;;;22.35;13.93;;;4.30;75.80;;;;;;2051996;28;20449;-80
2021/03/08 03:44:01;;;;;;;22.75;14.00;;;4.30;75.80;;;;;;2073121;28;20369;-81
2021/03/08 03:45:07;;;;;;;23.33;14.50;;;4.30;75.80;;;;;;2080188;28;20558;-81
2021/03/08 03:46:08;;;;;;;25.00;14.82;;;4.30;75.80;;;;;;2070947;28;20034;-80
2021/03/08 03:47:09;;;;;;;24.05;15.13;;;4.30;75.70;;;;;;2064945;28;20396;-81
2021/03/08 03:48:11;;;;;;;24.10;15.48;;;4.30;75.70;;;;;;2071772;28;20120;-81
2021/03/08 03:49:13;;;;;;;23.38;14.55;;;4.30;75.70;;;;;;2071704;28;20026;-81
2021/03/08 03:50:16;;;;;;;24.17;14.50;;;4.30;75.70;;;;;;2081913;28;20065;-81
2021/03/08 03:51:17;;;;;;;25.40;15.70;;;4.30;75.70;;;;;;2081676;28;20147;-80
2021/03/08 03:52:17;;;;;;;25.30;15.38;;;4.30;75.70;;;;;;2079974;28;20494;-81
2021/03/08 03:53:18;;;;;;;23.75;14.35;;;4.30;75.60;;;;;;2069771;28;20038;-80
2021/03/08 03:54:19;;;;;;;23.65;14.82;;;4.30;75.60;;;;;;2071960;28;20030;-81
2021/03/08 03:55:22;;;;;;;23.70;14.85;;;4.30;75.60;;;;;;2080739;28;20029;-81
2021/03/08 03:56:27;;;;;;;24.15;15.25;;;4.30;75.70;;;;;;2072606;28;20060;-81
2021/03/08 03:57:50;;;;;;;24.42;14.80;;;4.30;75.70;;;;;;2073742;28;20076;-81
2021/03/08 03:59:24;;;;;;;24.95;15.10;;;4.30;75.70;;;;;;2073644;28;20482;-81
2021/03/08 04:00:26;;;;;;;22.23;13.45;;;4.30;75.60;;;;;;2059903;28;20058;-81
2021/03/08 04:01:40;;;;;;;22.48;14.57;;;4.30;75.60;;;;;;2075953;28;20032;-81
2021/03/08 04:02:55;;;;;;;23.13;14.48;;;4.30;75.50;;;;;;2074170;28;20053;-81
2021/03/08 04:04:08;;;;;;;24.67;14.48;;;4.30;75.60;;;;;;2080642;28;20030;-80
2021/03/08 04:05:11;;;;;;;22.77;13.93;;;4.30;75.50;;;;;;2071379;28;20068;-82
2021/03/08 04:06:13;;;;;;;23.75;14.43;;;4.30;75.50;;;;;;2067723;28;20037;-80
2021/03/08 04:07:14;;;;;;;21.92;14.63;;;4.20;75.50;;;;;;2072985;28;20025;-81
2021/03/08 04:08:18;;;;;;;22.65;14.38;;;4.30;75.50;;;;;;2064152;28;20117;-81
2021/03/08 04:09:24;;;;;;;22.95;14.60;;;4.30;75.60;;;;;;2073105;28;20029;-81
2021/03/08 04:10:26;;;;;;;25.75;15.55;;;4.30;75.60;;;;;;2078745;28;20037;-81
2021/03/08 04:11:31;;;;;;;25.58;15.18;;;4.30;75.60;;;;;;2063847;28;20026;-80
2021/03/08 04:12:36;;;;;;;22.77;13.90;;;4.30;75.60;;;;;;2065480;28;20033;-81
2021/03/08 04:13:36;;;;;;;24.85;15.32;;;4.30;75.70;;;;;;2069987;28;20030;-81
2021/03/08 04:14:41;;;;;;;26.10;14.40;;;4.30;75.70;;;;;;2062999;28;20122;-81
2021/03/08 04:15:42;;;;;;;24.33;14.88;;;4.30;75.80;;;;;;2064595;28;20138;-81
2021/03/08 04:16:46;;;;;;;23.60;14.73;;;4.30;75.70;;;;;;2072880;28;20520;-81
2021/03/08 04:17:48;;;;;;;21.95;14.82;;;4.30;75.80;;;;;;2056805;28;20018;-81
2021/03/08 04:18:51;;;;;;;24.17;14.98;;;4.30;75.80;;;;;;2058580;28;20417;-81
2021/03/08 04:19:57;;;;;;;23.90;15.07;;;4.20;75.70;;;;;;2072655;28;20045;-81
2021/03/08 04:20:59;;;;;;;24.98;15.38;;;4.30;75.80;;;;;;2067719;28;20139;-81
2021/03/08 04:22:03;;;;;;;22.90;14.75;;;4.20;75.70;;;;;;2064711;28;20521;-80
2021/03/08 04:23:11;;;;;;;23.08;14.77;;;4.20;75.80;;;;;;2060112;28;20026;-81
2021/03/08 04:24:13;;;;;;;26.00;15.07;;;4.20;75.80;;;;;;2074806;28;20048;-81
2021/03/08 04:25:15;;;;;;;22.85;14.75;;;4.30;75.90;;;;;;2077869;28;20034;-81
2021/03/08 04:26:18;;;;;;;24.60;15.15;;;4.30;75.90;;;;;;2069604;28;20038;-81
2021/03/08 04:27:21;;;;;;;23.35;14.55;;;4.20;75.80;;;;;;2073973;28;20057;-80
2021/03/08 04:28:23;;;;;;;23.85;15.02;;;4.20;75.80;;;;;;2071804;28;20068;-81
2021/03/08 04:29:23;;;;;;;24.20;15.15;;;4.20;75.80;;;;;;2070180;28;20553;-80
2021/03/08 04:30:25;;;;;;;23.55;14.23;;;4.20;75.80;;;;;;2080188;28;20064;-81
2021/03/08 04:31:25;;;;;;;23.30;14.75;;;4.30;75.90;;;;;;2071041;28;20038;-81
2021/03/08 04:32:27;;;;;;;23.48;14.75;;;4.30;75.90;;;;;;2049648;28;20035;-81
2021/03/08 04:33:29;;;;;;;23.92;15.05;;;4.30;75.90;;;;;;2061162;28;20033;-81
2021/03/08 04:34:32;;;;;;;24.48;15.35;;;4.30;75.90;;;;;;2072792;28;20060;-81
2021/03/08 04:35:33;;;;;;;25.95;14.32;;;4.20;75.90;;;;;;2070040;28;20069;-81
2021/03/08 04:36:36;;;;;;;23.42;14.43;;;4.30;75.90;;;;;;2072389;28;20083;-81
2021/03/08 04:37:39;;;;;;;24.67;14.70;;;4.30;76.00;;;;;;2071635;28;20025;-83
2021/03/08 04:38:44;;;;;;;26.27;14.95;;;4.30;76.00;;;;;;2065006;28;20048;-82
2021/03/08 04:39:46;;;;;;;22.10;13.80;;;4.30;76.00;;;;;;2072457;28;20408;-82
2021/03/08 04:40:50;;;;;;;23.42;14.45;;;4.30;76.00;;;;;;2082828;28;20036;-82
2021/03/08 04:41:52;;;;;;;23.35;14.40;;;4.30;76.00;;;;;;2079115;28;20491;-81
2021/03/08 04:42:53;;;;;;;23.58;14.32;;;4.30;76.00;;;;;;2079488;28;20028;-81
2021/03/08 04:43:55;;;;;;;22.55;14.27;;;4.30;76.00;;;;;;2071891;28;20034;-81
2021/03/08 04:44:56;;;;;;;24.27;15.50;;;4.30;76.00;;;;;;2062920;28;20045;-81
2021/03/08 04:45:57;;;;;;;25.23;14.80;;;4.30;76.00;;;;;;2070755;28;20029;-81
2021/03/08 04:46:58;;;;;;;21.65;14.27;;;4.30;76.00;;;;;;2072022;28;20030;-82
2021/03/08 04:48:02;;;;;;;23.27;14.85;;;4.30;76.10;;;;;;2080647;28;20033;-82
2021/03/08 04:49:06;;;;;;;21.85;14.38;;;4.30;76.00;;;;;;2070878;28;20090;-84
2021/03/08 04:50:08;;;;;;;24.60;14.98;;;4.30;76.10;;;;;;2064852;28;20029;-83
2021/03/08 04:51:11;;;;;;;23.70;14.43;;;4.30;76.00;;;;;;2072765;28;20026;-82
2021/03/08 04:52:18;;;;;;;25.65;15.00;;;4.30;76.60;;;;;;2069238;28;20476;-83
2021/03/08 04:53:19;;;;;;;23.23;14.23;;;4.30;76.10;;;;;;2079827;28;20021;-83
2021/03/08 04:54:20;;;;;;;22.10;14.07;;;4.30;76.00;;;;;;2080334;28;20483;-82
2021/03/08 04:55:24;;;;;;;22.58;14.43;;;4.30;76.10;;;;;;2080689;28;20091;-81
2021/03/08 04:56:26;;;;;;;24.85;14.70;;;4.30;76.10;;;;;;2079460;28;20116;-83
2021/03/08 04:57:28;;;;;;;24.17;15.25;;;4.30;76.10;;;;;;2063364;28;20456;-82
2021/03/08 04:58:30;;;;;;;24.77;15.77;;;4.30;76.10;;;;;;2063712;28;20089;-81
2021/03/08 04:59:31;;;;;;;24.90;14.98;;;4.30;76.10;;;;;;2063411;28;20049;-81
2021/03/08 05:00:32;;;;;;;24.85;15.25;;;4.30;76.10;;;;;;2057488;28;22148;-82
2021/03/08 05:01:34;;;;;;;25.15;16.02;;;4.30;76.10;;;;;;2072080;28;20469;-81
2021/03/08 05:02:36;;;;;;;22.92;15.02;;;4.30;76.10;;;;;;2064045;28;21292;-81
2021/03/08 05:03:38;;;;;;;24.67;14.95;;;4.30;76.10;;;;;;2064125;28;20449;-81
2021/03/08 05:04:40;;;;;;;24.33;15.55;;;4.30;76.10;;;;;;2064571;28;20084;-81
2021/03/08 05:05:43;;;;;;;24.63;15.02;;;4.30;76.10;;;;;;2066838;28;20057;-80
2021/03/08 05:06:44;;;;;;;24.38;15.35;;;4.30;76.10;;;;;;2080706;28;20391;-81
2021/03/08 05:07:46;;;;;;;24.40;15.60;;;4.30;76.70;;;;;;2069341;28;20040;-80
2021/03/08 05:08:48;;;;;;;23.05;14.80;;;4.30;76.10;;;;;;2061465;28;20038;-80
2021/03/08 05:09:51;;;;;;;23.02;15.05;;;4.30;76.10;;;;;;2064006;28;20030;-81
2021/03/08 05:10:54;;;;;;;22.88;14.95;;;4.30;76.20;;;;;;2069680;28;20033;-81
2021/03/08 05:11:57;;;;;;;23.63;14.93;;;4.30;76.20;;;;;;2072699;28;20064;-81
2021/03/08 05:12:59;;;;;;;22.00;14.57;;;4.30;76.80;;;;;;2069672;28;20033;-81
2021/03/08 05:14:03;;;;;;;25.00;15.57;;;4.30;76.20;;;;;;2071373;28;20029;-81
2021/03/08 05:15:07;;;;;;;23.08;15.57;;;4.30;76.20;;;;;;2070651;28;20488;-81
2021/03/08 05:16:09;;;;;;;23.17;15.30;;;4.30;76.20;;;;;;2076743;28;20115;-80
2021/03/08 05:17:14;;;;;;;24.67;14.80;;;4.30;76.20;;;;;;2079618;28;20501;-81
2021/03/08 05:18:16;;;;;;;23.45;14.60;;;4.30;76.20;;;;;;2081279;28;20029;-81
2021/03/08 05:19:18;;;;;;;25.20;14.95;;;4.30;76.20;;;;;;2072510;28;20056;-81
2021/03/08 05:20:19;;;;;;;22.88;14.32;;;4.30;76.20;;;;;;2064857;28;20041;-81
2021/03/08 05:21:21;;;;;;;22.67;15.20;;;4.30;76.30;;;;;;2063315;28;20045;-81
2021/03/08 05:22:24;;;;;;;22.13;14.38;;;4.30;76.30;;;;;;2072450;28;20030;-81
2021/03/08 05:23:24;;;;;;;23.48;15.20;;;4.30;76.90;;;;;;2063316;28;20036;-82
2021/03/08 05:24:25;;;;;;;22.58;14.32;;;4.30;76.30;;;;;;2064271;28;20038;-81
2021/03/08 05:25:27;;;;;;;23.17;15.10;;;4.30;76.30;;;;;;2069509;28;20096;-81